createdAt,value
2024-02-22T00:02:53.823Z,105.60
2024-02-22T00:06:16.247Z,101.10
2024-02-22T00:09:38.301Z,98.30
2024-02-22T00:13:00.920Z,92.90
2024-02-22T00:16:23.194Z,95.13
2024-02-22T00:19:45.213Z,100.32
2024-02-22T00:23:07.596Z,95.28
2024-02-22T00:26:29.681Z,97.47
2024-02-22T00:29:52.169Z,98.10
2024-02-22T00:33:14.267Z,102.63
2024-02-22T00:36:45.589Z,103.63
2024-02-22T00:40:10.742Z,94.63
2024-02-22T00:43:33.118Z,104.80
2024-02-22T00:46:55.616Z,96.40
2024-02-22T00:50:18.686Z,97.70
2024-02-22T00:53:40.699Z,101.43
2024-02-22T00:57:02.739Z,96.03
2024-02-22T01:00:25.003Z,90.10
2024-02-22T01:03:47.133Z,92.68
2024-02-22T01:07:09.207Z,101.25
2024-02-22T01:10:31.465Z,92.60
2024-02-22T01:13:53.924Z,90.97
2024-02-22T01:17:17.892Z,95.90
2024-02-22T01:20:40.603Z,84.35
2024-02-22T01:24:02.824Z,97.63
2024-02-22T01:27:25.004Z,90.53
2024-02-22T01:30:47.429Z,95.28
2024-02-22T01:34:09.503Z,100.25
2024-02-22T01:37:31.624Z,104.88
2024-02-22T01:40:53.784Z,102.03
2024-02-22T01:44:16.722Z,104.75
2024-02-22T01:47:40.524Z,101.57
2024-02-22T01:51:03.366Z,102.88
2024-02-22T01:54:26.982Z,99.88
2024-02-22T01:57:50.658Z,106.63
2024-02-22T02:01:12.952Z,97.43
2024-02-22T02:04:36.370Z,97.97
2024-02-22T02:07:58.884Z,104.40
2024-02-22T02:11:21.062Z,92.43
2024-02-22T02:14:43.103Z,105.05
2024-02-22T02:18:05.863Z,94.05
2024-02-22T02:21:45.157Z,98.82
2024-02-22T02:25:09.508Z,95.13
2024-02-22T02:28:31.876Z,93.60
2024-02-22T02:31:54.007Z,89.97
2024-02-22T02:35:16.490Z,96.38
2024-02-22T02:38:38.491Z,96.25
2024-02-22T02:42:00.552Z,93.50
2024-02-22T02:45:22.492Z,96.63
2024-02-22T02:48:44.706Z,93.63
2024-02-22T02:52:07.186Z,100.55
2024-02-22T02:55:29.287Z,99.75
2024-02-22T02:58:51.490Z,95.05
2024-02-22T03:02:13.588Z,95.55
2024-02-22T03:05:40.327Z,86.20
2024-02-22T03:09:02.639Z,86.85
2024-02-22T03:12:24.641Z,89.63
2024-02-22T03:15:49.502Z,84.10
2024-02-22T03:19:11.629Z,91.28
2024-02-22T03:22:33.915Z,85.38
2024-02-22T03:25:56.160Z,90.00
2024-02-22T03:29:18.258Z,90.68
2024-02-22T03:32:40.315Z,88.15
2024-02-22T03:36:03.266Z,91.75
2024-02-22T03:39:25.438Z,91.22
2024-02-22T03:42:47.940Z,88.07
2024-02-22T03:46:09.980Z,92.57
2024-02-22T03:49:32.003Z,84.53
2024-02-22T03:52:54.062Z,81.75
2024-02-22T03:56:16.073Z,86.20
2024-02-22T03:59:38.835Z,91.57
2024-02-22T04:03:00.844Z,75.53
2024-02-22T04:06:23.815Z,83.18
2024-02-22T04:09:46.066Z,90.15
2024-02-22T04:13:10.190Z,88.30
2024-02-22T04:16:32.201Z,90.82
2024-02-22T04:19:56.431Z,82.82
2024-02-22T04:23:18.547Z,80.68
2024-02-22T04:26:55.583Z,88.65
2024-02-22T04:30:17.822Z,94.35
2024-02-22T04:33:41.899Z,86.65
2024-02-22T04:37:04.083Z,87.05
2024-02-22T04:40:26.903Z,90.55
2024-02-22T04:43:49.681Z,93.25
2024-02-22T04:47:12.770Z,96.75
2024-02-22T04:50:35.574Z,90.47
2024-02-22T04:53:57.699Z,96.45
2024-02-22T04:57:19.788Z,95.97
2024-02-22T05:00:42.025Z,92.28
2024-02-22T05:04:05.850Z,100.50
2024-02-22T05:07:29.470Z,105.03
2024-02-22T05:10:52.337Z,91.97
2024-02-22T05:14:15.506Z,105.43
2024-02-22T05:17:40.483Z,99.72
2024-02-22T05:21:02.537Z,101.53
2024-02-22T05:24:24.558Z,109.82
2024-02-22T05:27:46.545Z,104.60
2024-02-22T05:31:26.731Z,112.38
2024-02-22T05:34:48.807Z,103.95
2024-02-22T05:38:13.244Z,109.03
2024-02-22T05:41:36.089Z,112.80
2024-02-22T05:44:58.339Z,108.45
2024-02-22T05:48:20.815Z,106.80
2024-02-22T05:51:43.057Z,105.22
2024-02-22T05:55:06.105Z,111.03
2024-02-22T05:58:28.078Z,119.63
2024-02-22T06:01:51.074Z,112.35
2024-02-22T06:05:14.763Z,111.53
2024-02-22T06:08:36.974Z,111.82
2024-02-22T06:11:59.208Z,113.40
2024-02-22T06:15:23.029Z,108.03
2024-02-22T06:18:45.232Z,114.32
2024-02-22T06:22:07.445Z,109.57
2024-02-22T06:25:29.544Z,106.25
2024-02-22T06:28:52.385Z,105.68
2024-02-22T06:32:14.744Z,102.22
2024-02-22T06:35:36.868Z,108.35
2024-02-22T06:38:58.888Z,99.15
2024-02-22T06:42:20.967Z,99.55
2024-02-22T06:45:43.011Z,110.30
2024-02-22T06:49:05.636Z,107.97
2024-02-22T06:52:28.636Z,107.38
2024-02-22T06:55:50.737Z,112.32
2024-02-22T06:59:13.114Z,107.68
2024-02-22T07:02:35.197Z,107.93
2024-02-22T07:05:57.182Z,107.20
2024-02-22T07:09:19.593Z,107.15
2024-02-22T07:12:44.516Z,101.88
2024-02-22T07:16:08.283Z,110.65
2024-02-22T07:19:30.385Z,100.00
2024-02-22T07:22:54.010Z,101.85
2024-02-22T07:26:16.412Z,112.15
2024-02-22T07:29:38.454Z,118.68
2024-02-22T07:33:00.630Z,104.93
2024-02-22T07:36:22.962Z,114.60
2024-02-22T07:39:45.202Z,104.57
2024-02-22T07:43:07.204Z,103.25
2024-02-22T07:46:29.194Z,111.43
2024-02-22T07:49:51.582Z,107.97
2024-02-22T07:53:13.698Z,114.90
2024-02-22T07:56:40.314Z,96.85
2024-02-22T08:00:03.482Z,104.55
2024-02-22T08:03:30.913Z,95.75
2024-02-22T08:06:53.313Z,96.32
2024-02-22T08:10:15.400Z,95.40
2024-02-22T08:13:37.495Z,94.82
2024-02-22T08:16:59.631Z,95.32
2024-02-22T08:20:21.810Z,103.70
2024-02-22T08:23:43.831Z,110.30
2024-02-22T08:27:06.228Z,109.95
2024-02-22T08:30:28.216Z,112.07
2024-02-22T08:33:50.500Z,103.70
2024-02-22T08:37:13.309Z,104.93
2024-02-22T08:40:39.707Z,109.57
2024-02-22T08:44:03.039Z,112.70
2024-02-22T08:47:26.243Z,113.25
2024-02-22T08:50:48.501Z,110.03
2024-02-22T08:54:11.698Z,100.63
2024-02-22T08:57:43.088Z,111.50
2024-02-22T09:01:09.932Z,105.22
2024-02-22T09:04:31.986Z,99.45
2024-02-22T09:07:54.151Z,93.38
2024-02-22T09:11:16.509Z,96.63
2024-02-22T09:14:38.910Z,101.40
2024-02-22T09:18:01.503Z,104.85
2024-02-22T09:21:23.550Z,96.68
2024-02-22T09:24:47.791Z,100.55
2024-02-22T09:28:10.360Z,102.90
2024-02-22T09:31:33.576Z,102.55
2024-02-22T09:34:56.159Z,101.40
2024-02-22T09:38:18.428Z,100.47
2024-02-22T09:41:40.576Z,102.30
2024-02-22T09:45:04.173Z,107.53
2024-02-22T09:48:26.306Z,111.90
2024-02-22T09:51:52.319Z,113.28
2024-02-22T09:55:15.799Z,105.22
2024-02-22T09:58:39.163Z,117.75
2024-02-22T10:02:07.050Z,126.18
2024-02-22T10:05:40.189Z,138.82
2024-02-22T10:09:05.530Z,137.07
2024-02-22T10:12:35.321Z,133.85
2024-02-22T10:16:08.963Z,133.13
2024-02-22T10:19:31.027Z,127.72
2024-02-22T10:22:53.133Z,128.20
2024-02-22T10:26:16.714Z,143.55
2024-02-22T10:29:39.484Z,127.85
2024-02-22T10:33:03.585Z,129.80
2024-02-22T10:36:26.335Z,139.80
2024-02-22T10:39:50.352Z,135.32
2024-02-22T10:43:13.398Z,123.95
2024-02-22T10:46:40.013Z,127.57
2024-02-22T10:50:06.342Z,134.00
2024-02-22T10:53:29.006Z,141.10
2024-02-22T10:56:51.141Z,133.15
2024-02-22T11:00:16.326Z,125.35
2024-02-22T11:03:39.418Z,122.15
2024-02-22T11:07:07.099Z,135.32
2024-02-22T11:10:29.189Z,125.93
2024-02-22T11:14:04.294Z,127.75
2024-02-22T11:17:28.115Z,130.07
2024-02-22T11:20:52.223Z,127.35
2024-02-22T11:24:22.861Z,126.22
2024-02-22T11:27:44.838Z,145.25
2024-02-22T11:31:12.997Z,134.85
2024-02-22T11:34:37.912Z,134.38
2024-02-22T11:38:01.389Z,117.13
2024-02-22T11:41:23.634Z,122.00
2024-02-22T11:44:46.739Z,119.47
2024-02-22T11:48:11.718Z,118.00
2024-02-22T11:51:34.077Z,115.60
2024-02-22T11:54:56.502Z,114.97
2024-02-22T11:58:19.247Z,113.70
2024-02-22T12:01:42.964Z,111.82
2024-02-22T12:05:07.287Z,102.85
2024-02-22T12:08:29.790Z,83.82
2024-02-22T12:11:52.362Z,83.90
2024-02-22T12:15:22.475Z,77.10
2024-02-22T12:18:46.727Z,71.75
2024-02-22T12:22:09.683Z,77.40
2024-02-22T12:25:31.667Z,85.70
2024-02-22T12:28:55.361Z,81.10
2024-02-22T12:32:17.995Z,74.72
2024-02-22T12:35:40.271Z,77.95
2024-02-22T12:39:02.399Z,81.03
2024-02-22T12:42:24.366Z,72.47
2024-02-22T12:45:48.454Z,85.82
2024-02-22T12:49:10.614Z,78.40
2024-02-22T12:52:32.863Z,76.30
2024-02-22T12:55:55.252Z,86.05
2024-02-22T12:59:18.732Z,82.35
2024-02-22T13:02:41.495Z,77.32
2024-02-22T13:06:03.785Z,69.43
2024-02-22T13:09:26.972Z,67.30
2024-02-22T13:12:49.135Z,78.18
2024-02-22T13:16:11.149Z,67.43
2024-02-22T13:19:33.112Z,62.25
2024-02-22T13:22:56.499Z,68.43
2024-02-22T13:26:19.231Z,57.60
2024-02-22T13:29:41.490Z,51.88
2024-02-22T13:33:03.848Z,53.95
2024-02-22T13:36:26.130Z,44.53
2024-02-22T13:39:48.691Z,52.03
2024-02-22T13:43:10.801Z,39.47
2024-02-22T13:46:32.740Z,47.83
2024-02-22T13:49:55.399Z,40.78
2024-02-22T13:53:17.535Z,42.72
2024-02-22T13:56:40.185Z,46.72
2024-02-22T14:00:04.213Z,46.05
2024-02-22T14:03:31.257Z,42.28
2024-02-22T14:06:53.310Z,50.42
2024-02-22T14:10:15.748Z,39.65
2024-02-22T14:13:37.931Z,39.15
2024-02-22T14:17:02.337Z,43.13
2024-02-22T14:20:24.577Z,33.83
2024-02-22T14:23:49.446Z,32.40
2024-02-22T14:27:14.168Z,30.70
2024-02-22T14:30:36.685Z,32.50
2024-02-22T14:33:58.973Z,33.10
2024-02-22T14:37:21.145Z,28.60
2024-02-22T14:40:43.447Z,31.65
2024-02-22T14:44:05.851Z,32.95
2024-02-22T14:47:28.157Z,35.60
2024-02-22T14:50:50.298Z,31.55
2024-02-22T14:54:12.278Z,29.35
2024-02-22T14:57:34.438Z,29.15
2024-02-22T15:00:56.931Z,43.85
2024-02-22T15:04:21.212Z,44.25
2024-02-22T15:07:43.363Z,48.90
2024-02-22T15:11:05.497Z,52.28
2024-02-22T15:14:27.540Z,53.33
2024-02-22T15:17:50.173Z,53.85
2024-02-22T15:21:12.331Z,61.70
2024-02-22T15:24:34.980Z,57.45
2024-02-22T15:27:57.106Z,51.63
2024-02-22T15:31:19.141Z,59.70
2024-02-22T15:34:41.339Z,68.85
2024-02-22T15:38:04.216Z,68.30
2024-02-22T15:41:28.555Z,78.68
2024-02-22T15:44:50.579Z,80.32
2024-02-22T15:48:12.783Z,86.97
2024-02-22T15:51:41.311Z,82.88
2024-02-22T15:55:03.987Z,79.97
2024-02-22T16:02:35.578Z,84.15
2024-02-22T16:05:58.073Z,86.53
2024-02-22T16:09:20.731Z,81.97
2024-02-22T16:12:43.107Z,90.90
2024-02-22T16:16:05.730Z,84.22
2024-02-22T16:19:28.282Z,85.15
2024-02-22T16:22:50.381Z,80.18
2024-02-22T16:26:12.502Z,79.72
2024-02-22T16:29:37.161Z,89.45
2024-02-22T16:32:59.871Z,77.45
2024-02-22T16:36:22.398Z,87.72
2024-02-22T16:39:45.199Z,86.00
2024-02-22T16:43:07.230Z,89.65
2024-02-22T16:46:29.261Z,94.68
2024-02-22T16:49:51.280Z,82.88
2024-02-22T16:53:13.714Z,82.25
2024-02-22T16:56:36.979Z,87.78
2024-02-22T16:59:59.353Z,68.75
2024-02-22T17:03:21.318Z,70.60
2024-02-22T17:06:43.487Z,71.50
2024-02-22T17:10:07.135Z,62.03
2024-02-22T17:13:31.351Z,58.45
2024-02-22T17:16:54.094Z,54.28
2024-02-22T17:20:19.041Z,62.00
2024-02-22T17:23:41.344Z,44.97
2024-02-22T17:27:03.589Z,40.67
2024-02-22T17:30:27.030Z,31.50
2024-02-22T17:33:49.217Z,33.83
2024-02-22T17:37:12.257Z,43.42
2024-02-22T17:40:34.342Z,37.55
2024-02-22T17:43:56.670Z,42.22
2024-02-22T17:47:21.957Z,43.92
2024-02-22T17:50:49.937Z,40.03
2024-02-22T17:54:12.115Z,39.83
2024-02-22T17:57:34.130Z,41.03
2024-02-22T18:00:59.458Z,44.65
2024-02-22T18:04:24.912Z,40.92
2024-02-22T18:07:48.794Z,49.92
2024-02-22T18:11:11.171Z,44.95
2024-02-22T18:14:34.089Z,40.25
2024-02-22T18:17:56.273Z,41.53
2024-02-22T18:21:18.322Z,46.85
2024-02-22T18:24:44.067Z,55.65
2024-02-22T18:28:06.876Z,48.30
2024-02-22T18:31:28.934Z,38.65
2024-02-22T18:34:51.024Z,36.10
2024-02-22T18:38:14.884Z,33.92
2024-02-22T18:41:40.088Z,36.10
2024-02-22T18:45:03.282Z,40.30
2024-02-22T18:48:25.549Z,34.95
2024-02-22T18:51:48.083Z,31.00
2024-02-22T18:55:11.161Z,30.27
2024-02-22T18:58:33.140Z,32.30
2024-02-22T19:01:55.162Z,29.55
2024-02-22T19:05:18.843Z,27.40
2024-02-22T19:08:42.088Z,29.48
2024-02-22T19:12:04.512Z,28.08
2024-02-22T19:15:26.968Z,32.33
2024-02-22T19:18:49.811Z,30.55
2024-02-22T19:22:11.794Z,28.92
2024-02-22T19:25:33.805Z,28.17
2024-02-22T19:28:57.739Z,33.40
2024-02-22T19:32:20.150Z,27.40
2024-02-22T19:35:43.168Z,30.92
2024-02-22T19:39:05.325Z,26.63
2024-02-22T19:42:27.304Z,27.83
2024-02-22T19:45:49.497Z,28.60
2024-02-22T19:49:11.853Z,27.50
2024-02-22T19:52:33.943Z,23.58
2024-02-22T19:55:58.178Z,27.20
2024-02-22T19:59:20.256Z,23.92
2024-02-22T20:02:44.046Z,21.02
2024-02-22T20:06:06.260Z,21.02
2024-02-22T20:09:30.759Z,26.85
2024-02-22T20:12:52.836Z,23.67
2024-02-22T20:16:17.991Z,21.52
2024-02-22T20:19:40.080Z,24.25
2024-02-22T20:23:02.170Z,22.58
2024-02-22T20:26:26.037Z,22.05
2024-02-22T20:29:48.361Z,22.23
2024-02-22T20:33:11.011Z,27.30
2024-02-22T20:36:34.239Z,23.85
2024-02-22T20:39:56.948Z,28.95
2024-02-22T20:43:20.833Z,25.55
2024-02-22T20:46:43.176Z,23.45
2024-02-22T20:50:06.826Z,24.95
2024-02-22T20:53:30.639Z,23.48
2024-02-22T20:56:52.792Z,22.92
2024-02-22T21:00:15.364Z,23.85
2024-02-22T21:03:37.532Z,18.70
2024-02-22T21:07:00.008Z,19.20
2024-02-22T21:10:21.970Z,19.42
2024-02-22T21:13:45.265Z,19.58
2024-02-22T21:17:07.665Z,20.55
2024-02-22T21:20:29.840Z,21.80
2024-02-22T21:23:52.223Z,22.00
2024-02-22T21:27:14.375Z,21.13
2024-02-22T21:30:36.562Z,22.35
2024-02-22T21:34:00.553Z,19.70
2024-02-22T21:37:23.995Z,18.13
2024-02-22T21:40:46.007Z,21.65
2024-02-22T21:44:08.127Z,18.95
2024-02-22T21:47:32.981Z,23.95
2024-02-22T21:50:55.288Z,20.42
2024-02-22T21:54:17.337Z,24.20
2024-02-22T21:57:39.517Z,24.45
2024-02-22T22:01:08.129Z,21.35
2024-02-22T22:04:30.208Z,22.85
2024-02-22T22:07:52.384Z,27.17
2024-02-22T22:11:14.487Z,24.10
2024-02-22T22:14:36.610Z,23.25
2024-02-22T22:17:58.689Z,19.75
2024-02-22T22:21:28.907Z,24.50
2024-02-22T22:24:56.461Z,21.27
2024-02-22T22:28:18.433Z,24.02
2024-02-22T22:31:45.953Z,18.83
2024-02-22T22:35:08.857Z,23.95
2024-02-22T22:38:30.909Z,21.55
2024-02-22T22:41:55.265Z,18.48
2024-02-22T22:45:18.966Z,22.33
2024-02-22T22:48:41.450Z,19.95
2024-02-22T22:52:04.104Z,17.10
2024-02-22T22:55:26.087Z,18.80
2024-02-22T22:58:48.218Z,24.15
2024-02-22T23:02:10.594Z,23.70
2024-02-22T23:05:32.800Z,23.92
2024-02-22T23:08:54.943Z,21.40
2024-02-22T23:12:17.095Z,20.92
2024-02-22T23:15:39.250Z,22.38
2024-02-22T23:19:01.346Z,27.20
2024-02-22T23:22:30.100Z,21.63
2024-02-22T23:25:52.166Z,19.90
2024-02-22T23:29:14.870Z,16.90
2024-02-22T23:32:36.992Z,21.48
2024-02-22T23:35:59.087Z,18.83
2024-02-22T23:39:21.107Z,18.80
2024-02-22T23:42:43.747Z,19.85
2024-02-22T23:46:06.682Z,20.20
2024-02-22T23:49:28.680Z,17.17
2024-02-22T23:52:50.778Z,21.23
2024-02-22T23:56:16.298Z,19.48
2024-02-22T23:59:41.195Z,20.67
